sensor_id;sensor_type;location;lat;lon;timestamp;P1;P2;P0
72467;PMS3003;60626;43.582;1.470;2022-07-06T00:02:21;2.50;1.00;1.00
72467;PMS3003;60626;43.582;1.470;2022-07-06T00:04:48;1.75;1.00;1.00
72467;PMS3003;60626;43.582;1.470;2022-07-06T00:07:15;1.50;1.50;1.00
72467;PMS3003;60626;43.582;1.470;2022-07-06T00:09:42;1.00;1.00;1.00
72467;PMS3003;60626;43.582;1.470;2022-07-06T00:12:09;1.00;1.00;1.00
72467;PMS3003;60626;43.582;1.470;2022-07-06T00:14:35;2.75;1.50;1.25
72467;PMS3003;60626;43.582;1.470;2022-07-06T00:17:02;1.75;1.75;1.50
72467;PMS3003;60626;43.582;1.470;2022-07-06T00:19:30;1.00;1.00;1.00
72467;PMS3003;60626;43.582;1.470;2022-07-06T00:21:56;2.00;2.00;2.00
72467;PMS3003;60626;43.582;1.470;2022-07-06T00:24:23;3.00;1.75;1.50
72467;PMS3003;60626;43.582;1.470;2022-07-06T00:26:50;2.00;2.00;1.75
72467;PMS3003;60626;43.582;1.470;2022-07-06T00:29:16;3.75;1.75;1.50
72467;PMS3003;60626;43.582;1.470;2022-07-06T00:31:43;2.00;2.00;2.00
72467;PMS3003;60626;43.582;1.470;2022-07-06T00:34:10;3.00;1.25;1.25
72467;PMS3003;60626;43.582;1.470;2022-07-06T00:36:37;1.00;1.00;1.00
72467;PMS3003;60626;43.582;1.470;2022-07-06T00:39:03;2.50;2.50;2.00
72467;PMS3003;60626;43.582;1.470;2022-07-06T00:41:30;3.25;3.00;2.75
72467;PMS3003;60626;43.582;1.470;2022-07-06T00:43:57;2.00;2.00;2.00
72467;PMS3003;60626;43.582;1.470;2022-07-06T00:46:28;4.75;2.00;2.00
72467;PMS3003;60626;43.582;1.470;2022-07-06T00:48:57;2.25;2.00;1.75
72467;PMS3003;60626;43.582;1.470;2022-07-06T00:51:25;4.25;1.75;1.75
72467;PMS3003;60626;43.582;1.470;2022-07-06T00:53:58;1.00;1.00;1.00
72467;PMS3003;60626;43.582;1.470;2022-07-06T00:56:26;2.75;1.50;1.50
72467;PMS3003;60626;43.582;1.470;2022-07-06T00:58:55;1.00;1.00;1.00
72467;PMS3003;60626;43.582;1.470;2022-07-06T01:01:22;1.50;1.50;1.50
72467;PMS3003;60626;43.582;1.470;2022-07-06T01:03:49;2.25;2.25;2.00
72467;PMS3003;60626;43.582;1.470;2022-07-06T01:06:16;2.00;2.00;2.00
72467;PMS3003;60626;43.582;1.470;2022-07-06T01:08:43;2.00;2.00;1.75
72467;PMS3003;60626;43.582;1.470;2022-07-06T01:11:09;4.00;2.00;1.75
72467;PMS3003;60626;43.582;1.470;2022-07-06T01:13:37;1.25;1.25;1.00
72467;PMS3003;60626;43.582;1.470;2022-07-06T01:16:04;1.00;1.00;1.00
72467;PMS3003;60626;43.582;1.470;2022-07-06T01:18:31;2.00;2.00;2.00
72467;PMS3003;60626;43.582;1.470;2022-07-06T01:21:06;2.75;2.00;1.25
72467;PMS3003;60626;43.582;1.470;2022-07-06T01:23:43;2.00;2.00;2.00
72467;PMS3003;60626;43.582;1.470;2022-07-06T01:26:15;3.50;1.25;1.00
72467;PMS3003;60626;43.582;1.470;2022-07-06T01:28:47;1.00;1.00;1.00
72467;PMS3003;60626;43.582;1.470;2022-07-06T01:31:19;1.50;1.50;1.50
72467;PMS3003;60626;43.582;1.470;2022-07-06T01:33:51;2.00;2.00;2.00
72467;PMS3003;60626;43.582;1.470;2022-07-06T01:36:19;2.00;2.00;2.00
72467;PMS3003;60626;43.582;1.470;2022-07-06T01:38:56;2.00;2.00;2.00
72467;PMS3003;60626;43.582;1.470;2022-07-06T01:41:26;2.00;2.00;2.00
72467;PMS3003;60626;43.582;1.470;2022-07-06T01:43:52;1.00;1.00;1.00
72467;PMS3003;60626;43.582;1.470;2022-07-06T01:46:19;2.00;2.00;2.00
72467;PMS3003;60626;43.582;1.470;2022-07-06T01:48:46;3.00;1.00;1.00
72467;PMS3003;60626;43.582;1.470;2022-07-06T01:51:13;1.00;1.00;1.00
72467;PMS3003;60626;43.582;1.470;2022-07-06T01:53:40;2.00;2.00;1.50
72467;PMS3003;60626;43.582;1.470;2022-07-06T01:56:07;2.00;2.00;2.00
72467;PMS3003;60626;43.582;1.470;2022-07-06T01:58:35;1.00;1.00;1.00
72467;PMS3003;60626;43.582;1.470;2022-07-06T02:01:12;3.25;2.00;1.00
72467;PMS3003;60626;43.582;1.470;2022-07-06T02:03:40;1.25;1.25;1.25
72467;PMS3003;60626;43.582;1.470;2022-07-06T02:06:07;3.00;3.00;2.00
72467;PMS3003;60626;43.582;1.470;2022-07-06T02:08:34;2.00;2.00;1.25
72467;PMS3003;60626;43.582;1.470;2022-07-06T02:11:05;2.00;2.00;1.75
72467;PMS3003;60626;43.582;1.470;2022-07-06T02:13:33;2.00;2.00;1.00
72467;PMS3003;60626;43.582;1.470;2022-07-06T02:16:00;2.25;2.00;2.00
72467;PMS3003;60626;43.582;1.470;2022-07-06T02:18:28;2.75;2.00;2.00
72467;PMS3003;60626;43.582;1.470;2022-07-06T02:20:55;2.00;2.00;2.00
72467;PMS3003;60626;43.582;1.470;2022-07-06T02:23:22;1.75;1.75;1.25
72467;PMS3003;60626;43.582;1.470;2022-07-06T02:25:49;2.50;2.50;2.00
72467;PMS3003;60626;43.582;1.470;2022-07-06T02:28:16;1.75;1.75;1.50
72467;PMS3003;60626;43.582;1.470;2022-07-06T02:30:42;1.50;1.50;1.25
72467;PMS3003;60626;43.582;1.470;2022-07-06T02:33:09;1.00;1.00;1.00
72467;PMS3003;60626;43.582;1.470;2022-07-06T02:35:36;2.00;2.00;1.25
72467;PMS3003;60626;43.582;1.470;2022-07-06T02:38:03;1.00;1.00;1.00
72467;PMS3003;60626;43.582;1.470;2022-07-06T02:40:30;2.50;2.50;2.00
72467;PMS3003;60626;43.582;1.470;2022-07-06T02:42:57;3.00;2.00;2.00
72467;PMS3003;60626;43.582;1.470;2022-07-06T02:45:24;4.00;2.00;2.00
72467;PMS3003;60626;43.582;1.470;2022-07-06T02:47:50;2.50;2.00;1.00
72467;PMS3003;60626;43.582;1.470;2022-07-06T02:50:17;5.00;2.00;1.75
72467;PMS3003;60626;43.582;1.470;2022-07-06T02:52:44;2.50;1.50;1.25
72467;PMS3003;60626;43.582;1.470;2022-07-06T02:55:11;3.75;2.00;2.00
72467;PMS3003;60626;43.582;1.470;2022-07-06T02:57:38;3.00;2.00;2.00
72467;PMS3003;60626;43.582;1.470;2022-07-06T03:00:05;3.00;2.00;2.00
72467;PMS3003;60626;43.582;1.470;2022-07-06T03:02:32;2.00;2.00;2.00
72467;PMS3003;60626;43.582;1.470;2022-07-06T03:04:59;2.00;2.00;1.75
72467;PMS3003;60626;43.582;1.470;2022-07-06T03:07:26;3.00;3.00;3.00
72467;PMS3003;60626;43.582;1.470;2022-07-06T03:09:53;1.00;1.00;1.00
72467;PMS3003;60626;43.582;1.470;2022-07-06T03:12:20;1.00;1.00;1.00
72467;PMS3003;60626;43.582;1.470;2022-07-06T03:14:46;1.00;1.00;1.00
72467;PMS3003;60626;43.582;1.470;2022-07-06T03:17:13;1.00;1.00;1.00
72467;PMS3003;60626;43.582;1.470;2022-07-06T03:19:40;2.75;2.00;2.00
72467;PMS3003;60626;43.582;1.470;2022-07-06T03:22:07;4.00;2.00;2.00
72467;PMS3003;60626;43.582;1.470;2022-07-06T03:24:34;2.00;2.00;2.00
72467;PMS3003;60626;43.582;1.470;2022-07-06T03:27:00;2.00;2.00;2.00
72467;PMS3003;60626;43.582;1.470;2022-07-06T03:29:27;2.00;2.00;2.00
72467;PMS3003;60626;43.582;1.470;2022-07-06T03:31:54;1.75;1.75;1.50
72467;PMS3003;60626;43.582;1.470;2022-07-06T03:34:21;3.00;2.00;2.00
72467;PMS3003;60626;43.582;1.470;2022-07-06T03:36:47;3.75;3.25;2.75
72467;PMS3003;60626;43.582;1.470;2022-07-06T03:39:14;2.00;2.00;2.00
72467;PMS3003;60626;43.582;1.470;2022-07-06T03:41:41;2.00;2.00;2.00
72467;PMS3003;60626;43.582;1.470;2022-07-06T03:44:08;2.75;2.75;2.25
72467;PMS3003;60626;43.582;1.470;2022-07-06T03:46:34;2.75;2.00;2.00
72467;PMS3003;60626;43.582;1.470;2022-07-06T03:49:01;2.75;2.75;2.00
72467;PMS3003;60626;43.582;1.470;2022-07-06T03:51:28;4.00;4.00;2.25
72467;PMS3003;60626;43.582;1.470;2022-07-06T03:53:55;3.25;3.25;3.00
72467;PMS3003;60626;43.582;1.470;2022-07-06T03:56:21;3.50;3.50;3.00
72467;PMS3003;60626;43.582;1.470;2022-07-06T03:58:58;2.00;2.00;2.00
72467;PMS3003;60626;43.582;1.470;2022-07-06T04:01:26;4.25;2.75;2.25
72467;PMS3003;60626;43.582;1.470;2022-07-06T04:03:53;2.75;2.75;2.25
72467;PMS3003;60626;43.582;1.470;2022-07-06T04:06:20;3.50;3.00;3.00
72467;PMS3003;60626;43.582;1.470;2022-07-06T04:08:47;3.25;3.25;2.75
72467;PMS3003;60626;43.582;1.470;2022-07-06T04:11:14;3.00;3.00;2.75
72467;PMS3003;60626;43.582;1.470;2022-07-06T04:13:40;4.50;4.00;3.00
72467;PMS3003;60626;43.582;1.470;2022-07-06T04:16:07;2.00;2.00;2.00
72467;PMS3003;60626;43.582;1.470;2022-07-06T04:18:35;2.25;2.25;2.00
72467;PMS3003;60626;43.582;1.470;2022-07-06T04:21:02;5.50;2.00;2.00
72467;PMS3003;60626;43.582;1.470;2022-07-06T04:23:29;2.50;2.50;2.00
72467;PMS3003;60626;43.582;1.470;2022-07-06T04:25:56;3.00;3.00;2.00
72467;PMS3003;60626;43.582;1.470;2022-07-06T04:28:23;3.00;3.00;2.25
72467;PMS3003;60626;43.582;1.470;2022-07-06T04:30:50;3.00;3.00;2.25
72467;PMS3003;60626;43.582;1.470;2022-07-06T04:33:17;4.00;4.00;3.00
72467;PMS3003;60626;43.582;1.470;2022-07-06T04:35:47;3.50;2.00;2.00
72467;PMS3003;60626;43.582;1.470;2022-07-06T04:38:14;4.25;3.00;2.75
72467;PMS3003;60626;43.582;1.470;2022-07-06T04:40:40;2.25;2.25;2.25
72467;PMS3003;60626;43.582;1.470;2022-07-06T04:43:07;2.75;2.75;2.50
72467;PMS3003;60626;43.582;1.470;2022-07-06T04:45:34;3.00;3.00;2.25
72467;PMS3003;60626;43.582;1.470;2022-07-06T04:48:00;3.25;2.75;2.00
72467;PMS3003;60626;43.582;1.470;2022-07-06T04:50:27;4.00;4.00;3.75
72467;PMS3003;60626;43.582;1.470;2022-07-06T04:52:54;4.75;3.00;3.00
72467;PMS3003;60626;43.582;1.470;2022-07-06T04:55:21;3.00;3.00;2.00
72467;PMS3003;60626;43.582;1.470;2022-07-06T04:57:47;2.00;2.00;2.00
72467;PMS3003;60626;43.582;1.470;2022-07-06T05:00:14;4.50;3.00;3.00
72467;PMS3003;60626;43.582;1.470;2022-07-06T05:02:41;5.75;4.00;4.00
72467;PMS3003;60626;43.582;1.470;2022-07-06T05:05:08;3.00;3.00;2.25
72467;PMS3003;60626;43.582;1.470;2022-07-06T05:07:38;3.00;3.00;2.75
72467;PMS3003;60626;43.582;1.470;2022-07-06T05:10:09;3.00;3.00;3.00
72467;PMS3003;60626;43.582;1.470;2022-07-06T05:12:37;2.25;2.25;2.00
72467;PMS3003;60626;43.582;1.470;2022-07-06T05:15:04;3.25;3.00;2.50
72467;PMS3003;60626;43.582;1.470;2022-07-06T05:17:32;4.00;4.00;3.00
72467;PMS3003;60626;43.582;1.470;2022-07-06T05:19:59;7.50;5.00;4.25
72467;PMS3003;60626;43.582;1.470;2022-07-06T05:22:25;4.25;4.25;3.25
72467;PMS3003;60626;43.582;1.470;2022-07-06T05:24:52;3.50;3.50;3.00
72467;PMS3003;60626;43.582;1.470;2022-07-06T05:27:19;3.50;3.50;3.00
72467;PMS3003;60626;43.582;1.470;2022-07-06T05:29:46;3.00;3.00;3.00
72467;PMS3003;60626;43.582;1.470;2022-07-06T05:32:12;4.00;3.50;3.00
72467;PMS3003;60626;43.582;1.470;2022-07-06T05:34:39;3.25;3.00;2.00
72467;PMS3003;60626;43.582;1.470;2022-07-06T05:37:06;4.25;2.00;2.00
72467;PMS3003;60626;43.582;1.470;2022-07-06T05:39:33;5.25;5.25;4.25
72467;PMS3003;60626;43.582;1.470;2022-07-06T05:42:00;4.75;3.25;2.75
72467;PMS3003;60626;43.582;1.470;2022-07-06T05:44:27;7.50;4.25;4.00
72467;PMS3003;60626;43.582;1.470;2022-07-06T05:46:53;5.00;4.00;3.25
72467;PMS3003;60626;43.582;1.470;2022-07-06T05:49:40;3.00;3.00;2.25
72467;PMS3003;60626;43.582;1.470;2022-07-06T05:52:26;5.25;4.00;3.00
72467;PMS3003;60626;43.582;1.470;2022-07-06T05:54:52;4.75;4.75;3.50
72467;PMS3003;60626;43.582;1.470;2022-07-06T05:57:19;4.50;4.50;3.50
72467;PMS3003;60626;43.582;1.470;2022-07-06T05:59:46;6.25;4.25;3.25
72467;PMS3003;60626;43.582;1.470;2022-07-06T06:02:12;6.00;3.25;3.00
72467;PMS3003;60626;43.582;1.470;2022-07-06T06:04:39;4.75;4.75;3.00
72467;PMS3003;60626;43.582;1.470;2022-07-06T06:07:06;3.00;3.00;2.75
72467;PMS3003;60626;43.582;1.470;2022-07-06T06:09:33;4.25;4.25;3.75
72467;PMS3003;60626;43.582;1.470;2022-07-06T06:12:00;3.00;3.00;3.00
72467;PMS3003;60626;43.582;1.470;2022-07-06T06:14:27;4.25;3.00;3.00
72467;PMS3003;60626;43.582;1.470;2022-07-06T06:16:53;3.00;3.00;3.00
72467;PMS3003;60626;43.582;1.470;2022-07-06T06:19:20;2.25;2.00;2.00
72467;PMS3003;60626;43.582;1.470;2022-07-06T06:21:47;4.00;4.00;3.50
72467;PMS3003;60626;43.582;1.470;2022-07-06T06:24:14;5.25;4.00;3.25
72467;PMS3003;60626;43.582;1.470;2022-07-06T06:26:40;4.25;3.00;3.00
72467;PMS3003;60626;43.582;1.470;2022-07-06T06:29:07;3.00;3.00;3.00
72467;PMS3003;60626;43.582;1.470;2022-07-06T06:31:34;3.00;3.00;3.00
72467;PMS3003;60626;43.582;1.470;2022-07-06T06:34:06;3.25;3.25;3.25
72467;PMS3003;60626;43.582;1.470;2022-07-06T06:36:33;3.25;3.25;2.50
72467;PMS3003;60626;43.582;1.470;2022-07-06T06:39:00;3.00;3.00;2.75
72467;PMS3003;60626;43.582;1.470;2022-07-06T06:41:28;3.25;3.25;3.00
72467;PMS3003;60626;43.582;1.470;2022-07-06T06:43:55;3.00;3.00;3.00
72467;PMS3003;60626;43.582;1.470;2022-07-06T06:46:21;4.00;4.00;3.00
72467;PMS3003;60626;43.582;1.470;2022-07-06T06:48:48;3.00;3.00;3.00
72467;PMS3003;60626;43.582;1.470;2022-07-06T06:51:15;3.50;3.25;2.00
72467;PMS3003;60626;43.582;1.470;2022-07-06T06:53:42;3.00;3.00;2.75
72467;PMS3003;60626;43.582;1.470;2022-07-06T06:56:08;2.00;2.00;1.75
72467;PMS3003;60626;43.582;1.470;2022-07-06T06:58:35;5.00;3.50;3.00
72467;PMS3003;60626;43.582;1.470;2022-07-06T07:01:22;1.00;1.00;1.00
72467;PMS3003;60626;43.582;1.470;2022-07-06T07:03:50;4.25;3.50;3.25
72467;PMS3003;60626;43.582;1.470;2022-07-06T07:06:17;5.00;3.00;3.00
72467;PMS3003;60626;43.582;1.470;2022-07-06T07:08:44;3.00;3.00;3.00
72467;PMS3003;60626;43.582;1.470;2022-07-06T07:11:10;2.75;2.75;2.00
72467;PMS3003;60626;43.582;1.470;2022-07-06T07:13:37;5.00;3.00;3.00
72467;PMS3003;60626;43.582;1.470;2022-07-06T07:16:04;4.00;4.00;3.25
72467;PMS3003;60626;43.582;1.470;2022-07-06T07:18:31;4.00;3.00;2.00
72467;PMS3003;60626;43.582;1.470;2022-07-06T07:20:59;3.75;3.00;2.25
72467;PMS3003;60626;43.582;1.470;2022-07-06T07:23:26;3.00;3.00;2.25
72467;PMS3003;60626;43.582;1.470;2022-07-06T07:25:52;3.00;3.00;2.00
72467;PMS3003;60626;43.582;1.470;2022-07-06T07:28:19;4.50;3.00;3.00
72467;PMS3003;60626;43.582;1.470;2022-07-06T07:30:46;3.50;3.00;3.00
72467;PMS3003;60626;43.582;1.470;2022-07-06T07:33:15;5.75;4.00;3.00
72467;PMS3003;60626;43.582;1.470;2022-07-06T07:35:42;3.25;3.25;2.50
72467;PMS3003;60626;43.582;1.470;2022-07-06T07:38:09;4.00;4.00;3.00
72467;PMS3003;60626;43.582;1.470;2022-07-06T07:40:36;3.50;3.50;3.00
72467;PMS3003;60626;43.582;1.470;2022-07-06T07:43:03;5.50;3.00;2.50
72467;PMS3003;60626;43.582;1.470;2022-07-06T07:45:29;3.50;3.50;3.00
72467;PMS3003;60626;43.582;1.470;2022-07-06T07:47:57;5.00;3.50;3.00
72467;PMS3003;60626;43.582;1.470;2022-07-06T07:50:24;4.00;4.00;3.50
72467;PMS3003;60626;43.582;1.470;2022-07-06T07:52:50;4.50;4.00;3.00
72467;PMS3003;60626;43.582;1.470;2022-07-06T07:55:17;7.00;4.00;3.00
72467;PMS3003;60626;43.582;1.470;2022-07-06T07:58:04;4.00;4.00;3.75
72467;PMS3003;60626;43.582;1.470;2022-07-06T08:00:31;4.25;4.25;3.75
72467;PMS3003;60626;43.582;1.470;2022-07-06T08:02:57;4.00;4.00;3.50
72467;PMS3003;60626;43.582;1.470;2022-07-06T08:05:24;2.50;2.50;2.00
72467;PMS3003;60626;43.582;1.470;2022-07-06T08:07:51;4.00;4.00;3.00
72467;PMS3003;60626;43.582;1.470;2022-07-06T08:10:18;6.00;4.00;4.00
72467;PMS3003;60626;43.582;1.470;2022-07-06T08:12:45;9.00;9.00;8.25
72467;PMS3003;60626;43.582;1.470;2022-07-06T08:15:12;4.25;3.00;3.00
72467;PMS3003;60626;43.582;1.470;2022-07-06T08:17:39;2.75;2.75;2.75
72467;PMS3003;60626;43.582;1.470;2022-07-06T08:20:06;3.75;3.75;3.25
72467;PMS3003;60626;43.582;1.470;2022-07-06T08:22:36;4.00;4.00;3.00
72467;PMS3003;60626;43.582;1.470;2022-07-06T08:25:03;3.25;3.25;3.00
72467;PMS3003;60626;43.582;1.470;2022-07-06T08:27:31;3.00;2.50;2.00
72467;PMS3003;60626;43.582;1.470;2022-07-06T08:29:58;3.25;3.00;3.00
72467;PMS3003;60626;43.582;1.470;2022-07-06T08:32:26;4.75;4.75;4.00
72467;PMS3003;60626;43.582;1.470;2022-07-06T08:35:13;3.00;3.00;3.00
72467;PMS3003;60626;43.582;1.470;2022-07-06T08:37:40;2.50;2.50;2.25
72467;PMS3003;60626;43.582;1.470;2022-07-06T08:40:07;3.00;3.00;2.75
72467;PMS3003;60626;43.582;1.470;2022-07-06T08:42:35;5.25;4.00;4.00
72467;PMS3003;60626;43.582;1.470;2022-07-06T08:45:04;4.00;4.00;4.00
72467;PMS3003;60626;43.582;1.470;2022-07-06T08:47:32;4.00;3.00;2.75
72467;PMS3003;60626;43.582;1.470;2022-07-06T08:50:02;2.50;2.50;2.25
72467;PMS3003;60626;43.582;1.470;2022-07-06T08:52:30;4.00;3.00;2.50
72467;PMS3003;60626;43.582;1.470;2022-07-06T08:54:57;4.25;3.00;3.00
72467;PMS3003;60626;43.582;1.470;2022-07-06T08:57:25;3.00;3.00;3.00
72467;PMS3003;60626;43.582;1.470;2022-07-06T08:59:52;2.00;2.00;2.00
72467;PMS3003;60626;43.582;1.470;2022-07-06T09:02:25;3.00;3.00;3.00
72467;PMS3003;60626;43.582;1.470;2022-07-06T09:04:55;8.00;8.00;7.00
72467;PMS3003;60626;43.582;1.470;2022-07-06T09:07:28;4.00;3.25;2.75
72467;PMS3003;60626;43.582;1.470;2022-07-06T09:10:19;4.00;4.00;4.00
72467;PMS3003;60626;43.582;1.470;2022-07-06T09:12:48;6.50;4.00;3.00
72467;PMS3003;60626;43.582;1.470;2022-07-06T09:15:15;5.00;3.00;3.00
72467;PMS3003;60626;43.582;1.470;2022-07-06T09:17:43;3.50;3.50;3.25
72467;PMS3003;60626;43.582;1.470;2022-07-06T09:20:11;3.75;3.00;3.00
72467;PMS3003;60626;43.582;1.470;2022-07-06T09:22:40;4.00;4.00;4.00
72467;PMS3003;60626;43.582;1.470;2022-07-06T09:25:09;4.00;4.00;4.00
72467;PMS3003;60626;43.582;1.470;2022-07-06T09:27:42;5.50;4.00;3.75
72467;PMS3003;60626;43.582;1.470;2022-07-06T09:30:14;5.75;4.25;4.00
72467;PMS3003;60626;43.582;1.470;2022-07-06T09:32:41;3.50;3.50;3.25
72467;PMS3003;60626;43.582;1.470;2022-07-06T09:35:22;3.75;3.75;3.00
72467;PMS3003;60626;43.582;1.470;2022-07-06T09:37:59;3.25;3.25;3.25
72467;PMS3003;60626;43.582;1.470;2022-07-06T09:40:33;3.50;3.25;3.00
72467;PMS3003;60626;43.582;1.470;2022-07-06T09:43:15;4.00;4.00;3.00
72467;PMS3003;60626;43.582;1.470;2022-07-06T09:45:50;6.00;4.75;4.00
72467;PMS3003;60626;43.582;1.470;2022-07-06T09:48:19;5.25;4.00;4.00
72467;PMS3003;60626;43.582;1.470;2022-07-06T09:53:22;4.25;4.25;4.00
72467;PMS3003;60626;43.582;1.470;2022-07-06T09:55:53;4.00;4.00;4.00
72467;PMS3003;60626;43.582;1.470;2022-07-06T09:58:21;4.25;4.25;4.00
72467;PMS3003;60626;43.582;1.470;2022-07-06T10:01:09;4.75;4.75;4.00
72467;PMS3003;60626;43.582;1.470;2022-07-06T10:03:36;4.75;3.00;3.00
72467;PMS3003;60626;43.582;1.470;2022-07-06T10:06:04;5.75;4.00;4.00
72467;PMS3003;60626;43.582;1.470;2022-07-06T10:08:31;8.50;5.00;4.75
72467;PMS3003;60626;43.582;1.470;2022-07-06T10:10:59;3.25;3.25;2.75
72467;PMS3003;60626;43.582;1.470;2022-07-06T10:13:26;6.75;4.00;4.00
72467;PMS3003;60626;43.582;1.470;2022-07-06T10:15:54;4.00;4.00;3.75
72467;PMS3003;60626;43.582;1.470;2022-07-06T10:18:21;7.00;5.00;5.00
72467;PMS3003;60626;43.582;1.470;2022-07-06T10:20:49;4.00;4.00;3.00
72467;PMS3003;60626;43.582;1.470;2022-07-06T10:23:15;4.00;4.00;3.50
72467;PMS3003;60626;43.582;1.470;2022-07-06T10:25:43;4.25;4.00;3.00
72467;PMS3003;60626;43.582;1.470;2022-07-06T10:28:11;8.50;6.25;5.75
72467;PMS3003;60626;43.582;1.470;2022-07-06T10:30:41;5.50;4.00;3.25
72467;PMS3003;60626;43.582;1.470;2022-07-06T10:33:10;7.50;4.25;4.00
72467;PMS3003;60626;43.582;1.470;2022-07-06T10:35:39;4.00;4.00;4.00
72467;PMS3003;60626;43.582;1.470;2022-07-06T10:38:08;4.25;4.25;3.25
72467;PMS3003;60626;43.582;1.470;2022-07-06T10:40:36;5.50;4.75;4.00
72467;PMS3003;60626;43.582;1.470;2022-07-06T10:43:23;5.00;5.00;4.25
72467;PMS3003;60626;43.582;1.470;2022-07-06T10:45:57;6.50;5.00;4.75
72467;PMS3003;60626;43.582;1.470;2022-07-06T10:48:24;6.00;4.75;4.00
72467;PMS3003;60626;43.582;1.470;2022-07-06T10:50:54;5.00;5.00;4.25
72467;PMS3003;60626;43.582;1.470;2022-07-06T10:53:22;5.00;5.00;4.00
72467;PMS3003;60626;43.582;1.470;2022-07-06T10:55:51;8.25;6.25;5.00
72467;PMS3003;60626;43.582;1.470;2022-07-06T11:01:12;4.00;4.00;3.00
72467;PMS3003;60626;43.582;1.470;2022-07-06T11:06:22;4.75;4.75;4.00
72467;PMS3003;60626;43.582;1.470;2022-07-06T11:11:18;5.00;5.00;4.50
72467;PMS3003;60626;43.582;1.470;2022-07-06T11:14:01;7.25;5.25;4.00
72467;PMS3003;60626;43.582;1.470;2022-07-06T11:16:32;5.00;5.00;5.00
72467;PMS3003;60626;43.582;1.470;2022-07-06T11:19:08;5.00;5.00;4.50
72467;PMS3003;60626;43.582;1.470;2022-07-06T11:24:37;4.00;4.00;3.00
72467;PMS3003;60626;43.582;1.470;2022-07-06T11:27:04;4.75;4.75;4.25
72467;PMS3003;60626;43.582;1.470;2022-07-06T11:29:33;4.00;4.00;3.75
72467;PMS3003;60626;43.582;1.470;2022-07-06T11:32:06;5.00;3.50;3.00
72467;PMS3003;60626;43.582;1.470;2022-07-06T11:34:40;3.00;3.00;3.00
72467;PMS3003;60626;43.582;1.470;2022-07-06T11:37:12;5.75;5.00;4.00
72467;PMS3003;60626;43.582;1.470;2022-07-06T11:39:41;3.75;3.75;3.25
72467;PMS3003;60626;43.582;1.470;2022-07-06T11:42:09;3.75;3.75;3.25
72467;PMS3003;60626;43.582;1.470;2022-07-06T11:44:38;3.25;2.25;2.00
72467;PMS3003;60626;43.582;1.470;2022-07-06T11:47:06;3.00;3.00;2.00
72467;PMS3003;60626;43.582;1.470;2022-07-06T11:49:34;3.00;3.00;2.50
72467;PMS3003;60626;43.582;1.470;2022-07-06T11:52:05;3.00;3.00;3.00
72467;PMS3003;60626;43.582;1.470;2022-07-06T11:54:33;4.00;4.00;3.50
72467;PMS3003;60626;43.582;1.470;2022-07-06T11:57:00;4.75;3.25;3.00
72467;PMS3003;60626;43.582;1.470;2022-07-06T11:59:31;3.00;3.00;2.50
72467;PMS3003;60626;43.582;1.470;2022-07-06T12:02:03;3.50;2.75;2.25
72467;PMS3003;60626;43.582;1.470;2022-07-06T12:04:35;5.00;3.25;3.00
72467;PMS3003;60626;43.582;1.470;2022-07-06T12:07:04;3.50;3.50;2.75
72467;PMS3003;60626;43.582;1.470;2022-07-06T12:09:35;4.50;4.50;3.00
72467;PMS3003;60626;43.582;1.470;2022-07-06T12:12:03;4.00;4.00;3.00
72467;PMS3003;60626;43.582;1.470;2022-07-06T12:14:32;3.00;3.00;2.00
72467;PMS3003;60626;43.582;1.470;2022-07-06T12:17:04;6.00;4.00;4.00
72467;PMS3003;60626;43.582;1.470;2022-07-06T12:19:38;6.25;4.25;4.00
72467;PMS3003;60626;43.582;1.470;2022-07-06T12:22:06;3.00;3.00;3.00
72467;PMS3003;60626;43.582;1.470;2022-07-06T12:24:34;3.50;3.00;2.50
72467;PMS3003;60626;43.582;1.470;2022-07-06T12:27:11;5.00;3.00;3.00
72467;PMS3003;60626;43.582;1.470;2022-07-06T12:29:39;6.00;4.75;4.50
72467;PMS3003;60626;43.582;1.470;2022-07-06T12:32:05;5.00;5.00;4.00
72467;PMS3003;60626;43.582;1.470;2022-07-06T12:34:33;3.50;3.50;3.25
72467;PMS3003;60626;43.582;1.470;2022-07-06T12:37:06;4.00;4.00;4.00
72467;PMS3003;60626;43.582;1.470;2022-07-06T12:39:41;3.00;3.00;3.00
72467;PMS3003;60626;43.582;1.470;2022-07-06T12:42:10;4.00;4.00;4.00
72467;PMS3003;60626;43.582;1.470;2022-07-06T12:44:44;3.50;3.50;3.00
72467;PMS3003;60626;43.582;1.470;2022-07-06T12:47:19;3.00;3.00;2.50
72467;PMS3003;60626;43.582;1.470;2022-07-06T12:49:48;4.00;4.00;3.75
72467;PMS3003;60626;43.582;1.470;2022-07-06T12:52:30;4.00;3.50;3.25
72467;PMS3003;60626;43.582;1.470;2022-07-06T12:54:59;2.00;2.00;2.00
72467;PMS3003;60626;43.582;1.470;2022-07-06T12:57:48;3.25;3.25;3.00
72467;PMS3003;60626;43.582;1.470;2022-07-06T13:00:17;3.00;3.00;3.00
72467;PMS3003;60626;43.582;1.470;2022-07-06T13:02:46;3.25;3.25;3.00
72467;PMS3003;60626;43.582;1.470;2022-07-06T13:05:34;2.00;2.00;2.00
72467;PMS3003;60626;43.582;1.470;2022-07-06T13:08:02;3.00;3.00;3.00
72467;PMS3003;60626;43.582;1.470;2022-07-06T13:10:29;2.00;2.00;2.00
72467;PMS3003;60626;43.582;1.470;2022-07-06T13:12:57;4.50;3.00;2.00
72467;PMS3003;60626;43.582;1.470;2022-07-06T13:15:24;5.00;3.50;3.00
72467;PMS3003;60626;43.582;1.470;2022-07-06T13:17:51;2.75;2.50;2.50
72467;PMS3003;60626;43.582;1.470;2022-07-06T13:20:18;4.25;4.25;4.00
72467;PMS3003;60626;43.582;1.470;2022-07-06T13:22:45;6.50;3.50;3.00
72467;PMS3003;60626;43.582;1.470;2022-07-06T13:25:12;3.25;3.00;3.00
72467;PMS3003;60626;43.582;1.470;2022-07-06T13:27:40;2.50;2.50;2.00
72467;PMS3003;60626;43.582;1.470;2022-07-06T13:30:07;3.75;3.75;2.75
72467;PMS3003;60626;43.582;1.470;2022-07-06T13:32:34;2.50;2.50;2.25
72467;PMS3003;60626;43.582;1.470;2022-07-06T13:35:01;2.50;2.25;2.00
72467;PMS3003;60626;43.582;1.470;2022-07-06T13:37:28;3.25;3.00;2.25
72467;PMS3003;60626;43.582;1.470;2022-07-06T13:39:55;3.00;3.00;3.00
72467;PMS3003;60626;43.582;1.470;2022-07-06T13:42:22;4.00;2.00;2.00
72467;PMS3003;60626;43.582;1.470;2022-07-06T13:44:49;2.00;2.00;2.00
72467;PMS3003;60626;43.582;1.470;2022-07-06T13:47:15;4.00;2.50;2.00
72467;PMS3003;60626;43.582;1.470;2022-07-06T13:49:42;1.75;1.00;1.00
72467;PMS3003;60626;43.582;1.470;2022-07-06T13:52:14;2.50;1.75;1.00
72467;PMS3003;60626;43.582;1.470;2022-07-06T13:54:41;2.00;2.00;2.00
72467;PMS3003;60626;43.582;1.470;2022-07-06T13:57:08;2.25;2.25;1.75
72467;PMS3003;60626;43.582;1.470;2022-07-06T13:59:34;2.50;2.50;2.00
72467;PMS3003;60626;43.582;1.470;2022-07-06T14:02:01;1.00;1.00;1.00
72467;PMS3003;60626;43.582;1.470;2022-07-06T14:04:28;2.50;2.50;2.00
72467;PMS3003;60626;43.582;1.470;2022-07-06T14:06:55;3.25;3.00;3.00
72467;PMS3003;60626;43.582;1.470;2022-07-06T14:09:22;2.00;2.00;2.00
72467;PMS3003;60626;43.582;1.470;2022-07-06T14:11:49;1.00;1.00;1.00
72467;PMS3003;60626;43.582;1.470;2022-07-06T14:14:15;2.00;2.00;2.00
72467;PMS3003;60626;43.582;1.470;2022-07-06T14:16:42;2.25;2.25;2.00
72467;PMS3003;60626;43.582;1.470;2022-07-06T14:19:09;2.50;2.00;2.00
72467;PMS3003;60626;43.582;1.470;2022-07-06T14:21:35;2.00;2.00;2.00
72467;PMS3003;60626;43.582;1.470;2022-07-06T14:24:02;2.00;2.00;2.00
72467;PMS3003;60626;43.582;1.470;2022-07-06T14:26:29;2.00;2.00;2.00
72467;PMS3003;60626;43.582;1.470;2022-07-06T14:28:56;1.25;1.25;1.25
72467;PMS3003;60626;43.582;1.470;2022-07-06T14:31:23;2.00;2.00;2.00
72467;PMS3003;60626;43.582;1.470;2022-07-06T14:33:50;2.00;2.00;2.00
72467;PMS3003;60626;43.582;1.470;2022-07-06T14:36:17;2.00;2.00;2.00
72467;PMS3003;60626;43.582;1.470;2022-07-06T14:38:44;2.75;2.75;2.25
72467;PMS3003;60626;43.582;1.470;2022-07-06T14:41:11;3.00;3.00;2.00
72467;PMS3003;60626;43.582;1.470;2022-07-06T14:43:38;3.00;3.00;3.00
72467;PMS3003;60626;43.582;1.470;2022-07-06T14:46:04;3.00;3.00;2.00